Time;durP1;ratioP1;P1;durP2;ratioP2;P2;SDS_P1;SDS_P2;PMS_P1;PMS_P2;Temp;Humidity;BMP_temperature;BMP_pressure;BME280_temperature;BME280_humidity;BME280_pressure;Samples;Min_cycle;Max_cycle;Signal;HPM_P1;HPM_P2
2023/04/04 00:00:12;;;;;;;13.02;4.80;;;1.20;99.90;;;;;;5068579;28;20075;-68
2023/04/04 00:02:38;;;;;;;10.68;4.88;;;1.20;99.90;;;;;;5064572;28;20043;-68
2023/04/04 00:05:05;;;;;;;11.15;4.93;;;1.20;99.90;;;;;;5070890;28;20044;-68
2023/04/04 00:07:31;;;;;;;11.70;4.80;;;1.20;99.90;;;;;;5085612;28;20092;-68
2023/04/04 00:09:56;;;;;;;14.38;4.85;;;1.20;99.90;;;;;;5085267;28;20044;-69
2023/04/04 00:12:23;;;;;;;10.82;5.15;;;1.20;99.90;;;;;;5076613;28;20036;-69
2023/04/04 00:14:49;;;;;;;10.48;4.85;;;1.30;99.90;;;;;;5048740;28;20044;-69
2023/04/04 00:17:16;;;;;;;14.45;5.10;;;1.30;99.90;;;;;;5051631;28;20040;-68
2023/04/04 00:19:41;;;;;;;13.10;5.20;;;1.30;99.90;;;;;;5064978;28;20048;-68
2023/04/04 00:22:08;;;;;;;13.75;5.20;;;1.40;99.90;;;;;;5048054;28;20045;-68
2023/04/04 00:24:34;;;;;;;12.60;5.15;;;1.40;99.90;;;;;;5064977;28;20163;-68
2023/04/04 00:27:00;;;;;;;15.27;5.20;;;1.40;99.90;;;;;;5064736;28;20052;-69
2023/04/04 00:29:26;;;;;;;14.90;5.85;;;1.40;99.90;;;;;;5064766;28;20455;-68
2023/04/04 00:31:52;;;;;;;13.93;5.82;;;1.40;99.90;;;;;;5064870;28;20361;-68
2023/04/04 00:34:17;;;;;;;16.25;5.40;;;1.40;99.90;;;;;;5048310;28;20064;-68
2023/04/04 00:36:43;;;;;;;15.77;5.45;;;1.30;99.90;;;;;;5064340;28;20170;-67
2023/04/04 00:39:09;;;;;;;13.55;5.72;;;1.30;99.90;;;;;;5064706;28;20047;-68
2023/04/04 00:41:35;;;;;;;14.48;5.70;;;1.30;99.90;;;;;;5060654;28;20391;-68
2023/04/04 00:44:01;;;;;;;13.35;5.93;;;1.30;99.90;;;;;;5073517;28;20349;-68
2023/04/04 00:46:28;;;;;;;16.08;5.65;;;1.20;99.90;;;;;;5064109;28;20451;-69
2023/04/04 00:48:55;;;;;;;13.57;5.28;;;1.10;99.90;;;;;;5064853;28;20140;-68
2023/04/04 00:51:20;;;;;;;11.98;5.18;;;1.00;99.90;;;;;;5046937;28;20262;-68
2023/04/04 00:53:47;;;;;;;18.27;5.90;;;0.90;99.90;;;;;;5064597;28;20512;-68
2023/04/04 00:56:14;;;;;;;13.05;5.90;;;0.90;99.90;;;;;;5047204;28;20156;-68
2023/04/04 00:58:41;;;;;;;15.43;5.35;;;0.80;99.90;;;;;;5062609;28;20190;-68
2023/04/04 01:01:09;;;;;;;14.57;5.75;;;0.80;99.90;;;;;;5047704;28;20060;-68
2023/04/04 01:03:36;;;;;;;9.80;4.55;;;0.80;99.90;;;;;;5064231;28;20040;-68
2023/04/04 01:06:02;;;;;;;18.38;5.25;;;0.80;99.90;;;;;;5047647;28;20507;-68
2023/04/04 01:08:29;;;;;;;14.10;5.20;;;0.70;99.90;;;;;;5064054;28;20053;-68
2023/04/04 01:10:55;;;;;;;11.02;5.38;;;0.70;99.90;;;;;;5063824;28;20212;-68
2023/04/04 01:13:21;;;;;;;17.20;6.47;;;0.70;99.90;;;;;;5047529;28;20056;-68
2023/04/04 01:15:48;;;;;;;17.45;5.68;;;0.60;99.90;;;;;;5047732;28;20557;-68
2023/04/04 01:18:17;;;;;;;13.70;5.68;;;0.60;99.90;;;;;;5089037;28;20031;-68
2023/04/04 01:20:56;;;;;;;13.93;5.18;;;0.50;99.90;;;;;;5073321;28;20094;-68
2023/04/04 01:23:28;;;;;;;12.00;5.63;;;0.50;99.90;;;;;;5047529;28;20125;-69
2023/04/04 01:26:05;;;;;;;11.40;5.70;;;0.50;99.90;;;;;;5064025;28;20043;-68
2023/04/04 01:28:31;;;;;;;12.68;5.60;;;0.50;99.90;;;;;;5064208;28;20491;-68
2023/04/04 01:30:59;;;;;;;13.18;5.53;;;0.40;99.90;;;;;;5047348;28;20051;-68
2023/04/04 01:33:29;;;;;;;12.25;5.82;;;0.40;99.90;;;;;;5047204;28;20071;-68
2023/04/04 01:36:21;;;;;;;12.48;4.68;;;0.40;99.90;;;;;;5046887;28;20047;-68
2023/04/04 01:38:50;;;;;;;13.50;5.85;;;0.40;99.90;;;;;;5047145;28;20048;-69
2023/04/04 01:41:18;;;;;;;14.88;5.45;;;0.40;99.90;;;;;;5063422;28;20110;-69
2023/04/04 01:43:45;;;;;;;14.50;5.50;;;0.30;99.90;;;;;;5047078;28;20047;-68
2023/04/04 01:46:11;;;;;;;15.20;5.93;;;0.30;99.90;;;;;;5047210;28;20040;-69
2023/04/04 01:48:37;;;;;;;15.32;5.63;;;0.30;99.90;;;;;;5047047;28;20091;-68
2023/04/04 01:51:03;;;;;;;13.38;5.63;;;0.30;99.90;;;;;;5047233;28;20076;-69
2023/04/04 01:53:29;;;;;;;14.50;5.88;;;0.20;99.90;;;;;;5047058;28;20275;-68
2023/04/04 01:55:55;;;;;;;13.00;5.72;;;0.20;99.90;;;;;;5046574;28;20091;-68
2023/04/04 01:58:22;;;;;;;13.75;5.35;;;0.10;99.90;;;;;;5049298;28;20084;-68
2023/04/04 02:00:47;;;;;;;12.80;4.85;;;0.10;99.90;;;;;;5051268;28;20109;-68
2023/04/04 02:03:13;;;;;;;12.63;5.93;;;0.00;99.90;;;;;;5078597;28;20075;-68
2023/04/04 02:05:39;;;;;;;14.95;5.57;;;0.00;99.90;;;;;;5077652;28;20119;-69
2023/04/04 02:08:05;;;;;;;9.98;5.15;;;0.00;99.90;;;;;;5051086;28;20079;-69
2023/04/04 02:10:31;;;;;;;13.88;5.45;;;0.00;99.90;;;;;;5080496;28;20527;-68
2023/04/04 02:12:56;;;;;;;10.80;5.10;;;-0.10;99.90;;;;;;5068701;28;20457;-68
2023/04/04 02:15:23;;;;;;;12.13;5.70;;;-0.10;99.90;;;;;;5060926;28;20040;-68
2023/04/04 02:17:49;;;;;;;13.30;5.78;;;-0.20;99.90;;;;;;5067048;28;20048;-68
2023/04/04 02:20:18;;;;;;;12.55;5.53;;;-0.20;99.90;;;;;;5065862;28;20051;-68
2023/04/04 02:22:54;;;;;;;10.93;5.80;;;-0.20;99.90;;;;;;5067166;28;20050;-68
2023/04/04 02:25:21;;;;;;;11.32;5.13;;;-0.20;99.90;;;;;;5050297;28;20124;-68
2023/04/04 02:27:47;;;;;;;13.05;5.72;;;-0.30;99.90;;;;;;5067467;28;20079;-68
2023/04/04 02:30:13;;;;;;;14.95;5.07;;;-0.30;99.90;;;;;;5067097;28;20082;-68
2023/04/04 02:32:39;;;;;;;11.20;5.40;;;-0.30;99.90;;;;;;5050660;28;20044;-68
2023/04/04 02:35:06;;;;;;;11.60;5.10;;;-0.30;99.90;;;;;;5071002;28;20031;-68
2023/04/04 02:37:31;;;;;;;14.68;6.10;;;-0.40;99.90;;;;;;5087522;28;20094;-69
2023/04/04 02:39:57;;;;;;;12.50;5.45;;;-0.40;99.90;;;;;;5055960;28;20554;-68
2023/04/04 02:42:23;;;;;;;15.55;5.63;;;-0.40;99.90;;;;;;5067031;28;20514;-68
2023/04/04 02:44:48;;;;;;;16.85;5.30;;;-0.40;99.90;;;;;;5066738;28;20127;-68
2023/04/04 02:47:15;;;;;;;13.23;5.45;;;-0.40;99.90;;;;;;5069361;28;20036;-68
2023/04/04 02:49:41;;;;;;;10.80;5.53;;;-0.40;99.90;;;;;;5085333;28;20486;-68
2023/04/04 02:52:07;;;;;;;12.65;5.40;;;-0.40;99.90;;;;;;5050092;28;20047;-68
2023/04/04 02:54:33;;;;;;;13.48;5.30;;;-0.40;99.90;;;;;;5067082;28;20648;-68
2023/04/04 02:56:59;;;;;;;12.57;5.28;;;-0.40;99.90;;;;;;5049643;28;20040;-68
2023/04/04 02:59:25;;;;;;;16.48;5.55;;;-0.40;99.90;;;;;;5062638;28;20389;-69
2023/04/04 03:01:50;;;;;;;13.85;5.50;;;-0.30;99.90;;;;;;5069503;28;20040;-69
2023/04/04 03:04:18;;;;;;;13.32;5.35;;;-0.30;99.90;;;;;;5049695;28;20055;-68
2023/04/04 03:06:45;;;;;;;16.38;5.38;;;-0.30;99.90;;;;;;5049815;28;20484;-68
2023/04/04 03:09:11;;;;;;;11.70;5.45;;;-0.40;99.90;;;;;;5049958;28;20513;-68
2023/04/04 03:11:37;;;;;;;13.40;6.18;;;-0.40;99.90;;;;;;5049478;28;20036;-68
2023/04/04 03:14:02;;;;;;;13.80;6.03;;;-0.40;99.90;;;;;;5067042;28;20338;-68
2023/04/04 03:16:28;;;;;;;11.90;5.82;;;-0.40;99.90;;;;;;5066518;28;20047;-68
2023/04/04 03:18:55;;;;;;;12.95;6.15;;;-0.40;99.90;;;;;;5080325;28;20044;-68
2023/04/04 03:21:21;;;;;;;13.40;6.00;;;-0.50;99.90;;;;;;5070516;28;20039;-68
2023/04/04 03:23:46;;;;;;;12.10;5.55;;;-0.40;99.90;;;;;;5049939;28;20040;-68
2023/04/04 03:26:12;;;;;;;13.70;5.78;;;-0.50;99.90;;;;;;5066188;28;20077;-68
2023/04/04 03:28:38;;;;;;;14.98;5.82;;;-0.50;99.90;;;;;;5055750;28;20087;-68
2023/04/04 03:31:05;;;;;;;15.88;6.13;;;-0.50;99.90;;;;;;5069358;28;20483;-68
2023/04/04 03:33:32;;;;;;;13.27;6.20;;;-0.60;99.90;;;;;;5068514;28;20040;-68
2023/04/04 03:35:58;;;;;;;14.15;5.40;;;-0.60;99.90;;;;;;5064906;28;20127;-68
2023/04/04 03:38:24;;;;;;;15.15;6.45;;;-0.60;99.90;;;;;;5049420;28;20140;-68
2023/04/04 03:41:00;;;;;;;12.48;5.93;;;-0.60;99.90;;;;;;5082283;28;20045;-68
2023/04/04 03:43:27;;;;;;;15.23;6.30;;;-0.60;99.90;;;;;;5051067;28;20131;-68
2023/04/04 03:45:54;;;;;;;12.38;6.20;;;-0.60;99.90;;;;;;5049625;28;20082;-68
2023/04/04 03:48:19;;;;;;;15.75;5.50;;;-0.60;99.90;;;;;;5065850;28;20127;-68
2023/04/04 03:50:45;;;;;;;12.07;5.75;;;-0.60;99.90;;;;;;5064842;28;20045;-68
2023/04/04 03:53:11;;;;;;;15.32;6.60;;;-0.70;99.90;;;;;;5067814;28;20101;-68
2023/04/04 03:55:41;;;;;;;15.50;6.07;;;-0.70;99.90;;;;;;5078513;28;20310;-68
2023/04/04 03:58:06;;;;;;;13.02;6.15;;;-0.70;99.90;;;;;;5048900;28;20048;-68
2023/04/04 04:00:32;;;;;;;13.95;5.88;;;-0.80;99.90;;;;;;5065343;28;20490;-68
2023/04/04 04:02:58;;;;;;;13.27;5.80;;;-0.80;99.90;;;;;;5065398;28;20378;-68
2023/04/04 04:05:24;;;;;;;16.85;6.60;;;-0.80;99.90;;;;;;5054703;28;20094;-68
2023/04/04 04:07:51;;;;;;;13.05;6.32;;;-0.80;99.90;;;;;;5085885;28;20035;-68
2023/04/04 04:10:17;;;;;;;11.73;5.70;;;-0.80;99.90;;;;;;5068707;28;20610;-68
2023/04/04 04:12:43;;;;;;;13.70;6.03;;;-0.80;99.90;;;;;;5082257;28;20539;-68
2023/04/04 04:15:09;;;;;;;13.60;5.65;;;-0.80;99.90;;;;;;5048623;28;20068;-67
2023/04/04 04:17:39;;;;;;;14.20;5.32;;;-0.70;99.90;;;;;;5053370;28;20381;-68
2023/04/04 04:20:09;;;;;;;15.45;5.82;;;-0.70;99.90;;;;;;5063309;28;20076;-68
2023/04/04 04:22:35;;;;;;;15.77;5.90;;;-0.60;99.90;;;;;;5065327;28;20032;-67
2023/04/04 04:25:00;;;;;;;16.23;5.53;;;-0.60;99.90;;;;;;5065215;28;20114;-67
2023/04/04 04:27:26;;;;;;;15.23;5.70;;;-0.60;99.90;;;;;;5064928;28;20495;-67
2023/04/04 04:29:52;;;;;;;12.15;5.85;;;-0.60;99.90;;;;;;5064724;28;20265;-68
2023/04/04 04:32:18;;;;;;;13.60;5.78;;;-0.60;99.90;;;;;;5064840;28;20032;-68
2023/04/04 04:34:44;;;;;;;10.25;5.32;;;-0.60;99.90;;;;;;5048496;28;20671;-68
2023/04/04 04:37:10;;;;;;;10.23;5.60;;;-0.60;99.90;;;;;;5048009;28;20041;-67
2023/04/04 04:39:36;;;;;;;14.40;6.22;;;-0.70;99.90;;;;;;5058782;28;20047;-67
2023/04/04 04:42:02;;;;;;;13.60;5.47;;;-0.70;99.90;;;;;;5084718;28;20135;-67
2023/04/04 04:44:27;;;;;;;13.52;5.68;;;-0.80;99.90;;;;;;5071149;28;20047;-68
2023/04/04 04:46:53;;;;;;;23.63;6.22;;;-0.80;99.90;;;;;;5048433;28;20047;-68
2023/04/04 04:49:19;;;;;;;15.45;5.53;;;-0.80;99.90;;;;;;5048079;28;20119;-68
2023/04/04 04:51:45;;;;;;;15.13;6.35;;;-0.90;99.90;;;;;;5064156;28;20380;-68
2023/04/04 04:54:11;;;;;;;15.68;6.38;;;-0.90;99.90;;;;;;5048164;28;20117;-67
2023/04/04 04:56:36;;;;;;;13.50;5.60;;;-0.90;99.90;;;;;;5047509;28;20052;-68
2023/04/04 04:59:03;;;;;;;10.85;5.50;;;-0.90;99.90;;;;;;5056566;28;20056;-68
2023/04/04 05:01:28;;;;;;;11.20;5.93;;;-0.90;99.90;;;;;;5067841;28;20079;-68
2023/04/04 05:03:54;;;;;;;14.45;5.25;;;-0.90;99.90;;;;;;5051099;28;20131;-68
2023/04/04 05:06:20;;;;;;;14.50;5.63;;;-0.90;99.90;;;;;;5061689;28;20075;-68
2023/04/04 05:08:46;;;;;;;13.40;5.63;;;-0.80;99.90;;;;;;5084915;28;20665;-68
2023/04/04 05:11:12;;;;;;;13.55;6.22;;;-0.80;99.90;;;;;;5067413;28;20050;-68
2023/04/04 05:13:39;;;;;;;17.35;6.15;;;-0.70;99.90;;;;;;5061935;28;20669;-68
2023/04/04 05:16:04;;;;;;;14.38;5.72;;;-0.80;99.90;;;;;;5067685;28;20075;-69
2023/04/04 05:18:30;;;;;;;13.35;5.32;;;-0.70;99.90;;;;;;5082081;28;20060;-68
2023/04/04 05:20:56;;;;;;;9.88;5.28;;;-0.60;99.90;;;;;;5064626;28;20040;-68
2023/04/04 05:23:22;;;;;;;11.25;5.25;;;-0.60;99.90;;;;;;5084215;28;20036;-69
2023/04/04 05:25:52;;;;;;;11.27;5.03;;;-0.60;99.90;;;;;;5053956;28;20097;-68
2023/04/04 05:28:19;;;;;;;16.92;4.82;;;-0.40;99.90;;;;;;5047683;28;20728;-68
2023/04/04 05:30:45;;;;;;;10.90;4.82;;;-0.30;99.90;;;;;;5064643;28;20380;-69
2023/04/04 05:33:11;;;;;;;12.18;5.47;;;-0.20;99.90;;;;;;5047685;28;20040;-68
2023/04/04 05:35:37;;;;;;;12.20;4.65;;;0.00;99.90;;;;;;5063887;28;20091;-68
2023/04/04 05:38:03;;;;;;;11.48;4.63;;;0.10;99.90;;;;;;5047589;28;20079;-69
2023/04/04 05:40:29;;;;;;;13.60;4.90;;;0.30;99.90;;;;;;5063430;28;20044;-68
2023/04/04 05:42:55;;;;;;;13.55;5.20;;;0.50;99.90;;;;;;5063455;28;20036;-68
2023/04/04 05:45:21;;;;;;;12.93;4.70;;;0.60;99.90;;;;;;5067536;28;20036;-68
2023/04/04 05:47:47;;;;;;;13.23;4.68;;;0.70;99.90;;;;;;5059708;28;20043;-69
2023/04/04 05:50:13;;;;;;;8.73;4.15;;;0.80;99.90;;;;;;5063593;28;20534;-68
2023/04/04 05:52:39;;;;;;;12.38;4.70;;;0.90;99.90;;;;;;5046978;28;20036;-68
2023/04/04 05:55:05;;;;;;;11.05;4.20;;;0.90;99.90;;;;;;5047022;28;20044;-67
2023/04/04 05:57:31;;;;;;;8.13;4.03;;;0.90;99.90;;;;;;5046743;28;20040;-68
2023/04/04 06:00:00;;;;;;;12.15;4.47;;;1.00;99.90;;;;;;5063872;28;20139;-68
2023/04/04 06:02:26;;;;;;;14.93;4.07;;;1.00;99.90;;;;;;5048915;28;20446;-68
2023/04/04 06:04:52;;;;;;;12.38;4.30;;;0.90;99.90;;;;;;5080403;28;20711;-68
2023/04/04 06:07:18;;;;;;;8.65;3.63;;;1.10;99.90;;;;;;5063923;28;20052;-68
2023/04/04 06:09:43;;;;;;;10.55;3.60;;;1.20;99.90;;;;;;5046400;28;20476;-64
2023/04/04 06:12:09;;;;;;;9.23;4.07;;;1.40;99.90;;;;;;5063318;28;20032;-64
2023/04/04 06:14:36;;;;;;;12.63;3.72;;;1.50;99.90;;;;;;5046788;28;20040;-64
2023/04/04 06:17:02;;;;;;;13.75;3.97;;;1.90;99.90;;;;;;5063738;28;20044;-65
2023/04/04 06:19:28;;;;;;;10.90;4.05;;;1.90;99.90;;;;;;5064467;28;20328;-63
2023/04/04 06:21:54;;;;;;;13.38;3.97;;;2.10;99.90;;;;;;5077536;28;20039;-63
2023/04/04 06:24:20;;;;;;;9.75;3.97;;;2.80;99.90;;;;;;5083608;28;20075;-63
2023/04/04 06:26:50;;;;;;;10.38;3.90;;;2.80;99.90;;;;;;5082524;28;20059;-63
2023/04/04 06:29:17;;;;;;;12.38;3.90;;;3.30;99.90;;;;;;5081706;28;20075;-65
2023/04/04 06:31:43;;;;;;;12.50;3.90;;;3.50;99.90;;;;;;5083369;28;20499;-64
2023/04/04 06:34:08;;;;;;;12.60;3.50;;;3.70;99.90;;;;;;5082624;28;20079;-64
2023/04/04 06:36:34;;;;;;;11.60;3.55;;;3.90;99.90;;;;;;5066595;28;20051;-64
2023/04/04 06:39:00;;;;;;;15.30;4.25;;;3.90;99.90;;;;;;5063417;28;20344;-64
2023/04/04 06:41:26;;;;;;;12.40;3.97;;;3.90;99.90;;;;;;5063134;28;20033;-64
2023/04/04 06:43:52;;;;;;;11.70;3.83;;;3.90;99.90;;;;;;5071687;28;20036;-63
2023/04/04 06:46:18;;;;;;;11.57;4.22;;;3.60;99.90;;;;;;5087497;28;20043;-64
2023/04/04 06:48:44;;;;;;;12.90;4.10;;;3.40;99.90;;;;;;5073034;28;20048;-63
2023/04/04 06:51:10;;;;;;;8.65;4.30;;;3.20;99.90;;;;;;5049167;28;20535;-63
2023/04/04 06:53:36;;;;;;;12.38;4.10;;;3.20;99.90;;;;;;5050279;28;20209;-63
2023/04/04 06:56:03;;;;;;;10.30;3.90;;;3.30;99.90;;;;;;5050055;28;20051;-63
2023/04/04 06:58:29;;;;;;;14.65;4.32;;;3.20;99.90;;;;;;5068263;28;20522;-63
2023/04/04 07:00:58;;;;;;;8.73;3.78;;;3.30;99.90;;;;;;5066844;28;20063;-63
2023/04/04 07:03:25;;;;;;;11.52;3.72;;;3.50;99.90;;;;;;5094235;28;20135;-64
2023/04/04 07:05:52;;;;;;;11.80;4.00;;;3.70;99.90;;;;;;5075967;28;20044;-64
2023/04/04 07:08:18;;;;;;;9.10;3.97;;;3.80;99.90;;;;;;5068327;28;20505;-64
2023/04/04 07:10:44;;;;;;;9.45;4.13;;;3.70;99.90;;;;;;5066622;28;20072;-64
2023/04/04 07:13:10;;;;;;;10.07;4.05;;;3.70;99.90;;;;;;5039229;28;20071;-63
2023/04/04 07:15:35;;;;;;;11.95;3.97;;;3.80;99.90;;;;;;5066738;28;20475;-64
2023/04/04 07:18:01;;;;;;;11.25;3.92;;;3.90;99.90;;;;;;5066340;28;20523;-64
2023/04/04 07:20:27;;;;;;;12.80;4.47;;;3.90;99.90;;;;;;5056009;28;20329;-64
2023/04/04 07:22:53;;;;;;;8.90;4.07;;;4.10;99.90;;;;;;5088141;28;20391;-64
2023/04/04 07:25:19;;;;;;;11.00;3.53;;;4.60;99.90;;;;;;5069311;28;20035;-64
2023/04/04 07:27:45;;;;;;;9.60;3.63;;;5.00;99.90;;;;;;5087972;28;20036;-64
2023/04/04 07:30:12;;;;;;;10.27;3.72;;;5.30;99.90;;;;;;5067293;28;20051;-64
2023/04/04 07:32:37;;;;;;;11.48;3.80;;;5.30;99.90;;;;;;5070164;28;20439;-64
2023/04/04 07:35:06;;;;;;;8.98;2.80;;;5.50;99.10;;;;;;5068210;28;20340;-66
2023/04/04 07:37:35;;;;;;;8.55;3.10;;;5.60;95.30;;;;;;5086451;28;20245;-64
2023/04/04 07:40:01;;;;;;;9.88;3.08;;;5.70;96.20;;;;;;5068645;28;20049;-64
2023/04/04 07:42:29;;;;;;;13.68;3.45;;;5.70;95.20;;;;;;5082872;28;20618;-66
2023/04/04 07:44:55;;;;;;;7.57;3.15;;;5.60;94.60;;;;;;5049296;28;20036;-65
2023/04/04 07:47:21;;;;;;;12.70;3.15;;;5.70;94.70;;;;;;5067311;28;20397;-64
2023/04/04 07:49:47;;;;;;;6.53;2.53;;;5.90;93.80;;;;;;5067790;28;20045;-63
2023/04/04 07:52:12;;;;;;;8.27;3.60;;;6.10;93.30;;;;;;5065756;28;20443;-63
2023/04/04 07:54:39;;;;;;;6.63;2.72;;;6.60;95.10;;;;;;5066893;28;20041;-64
2023/04/04 07:57:05;;;;;;;9.77;3.45;;;6.90;93.40;;;;;;5066581;28;20086;-65
2023/04/04 07:59:31;;;;;;;10.35;2.70;;;7.00;91.20;;;;;;5065326;28;20052;-64
2023/04/04 08:01:57;;;;;;;11.60;3.35;;;7.30;87.60;;;;;;5067315;28;20482;-63
2023/04/04 08:04:23;;;;;;;11.35;2.90;;;7.70;87.40;;;;;;5066050;28;20295;-64
2023/04/04 08:06:49;;;;;;;10.18;3.13;;;8.40;85.80;;;;;;5048368;28;20044;-63
2023/04/04 08:09:17;;;;;;;7.80;2.97;;;8.90;79.90;;;;;;5065601;28;20498;-64
2023/04/04 08:11:44;;;;;;;10.60;2.67;;;9.10;74.10;;;;;;5065132;28;20522;-64
2023/04/04 08:14:10;;;;;;;7.93;2.83;;;9.20;71.30;;;;;;5065437;28;20379;-65
2023/04/04 08:16:37;;;;;;;10.85;2.85;;;9.00;69.90;;;;;;5048604;28;20084;-65
2023/04/04 08:19:03;;;;;;;7.97;2.75;;;8.70;71.20;;;;;;5066457;28;20116;-64
2023/04/04 08:21:29;;;;;;;7.88;2.40;;;8.40;70.20;;;;;;5076351;28;20051;-64
2023/04/04 08:23:55;;;;;;;10.15;2.80;;;8.30;68.20;;;;;;5082236;28;20150;-64
2023/04/04 08:26:21;;;;;;;9.15;2.50;;;8.10;68.10;;;;;;5064061;28;20195;-65
2023/04/04 08:28:47;;;;;;;7.90;2.80;;;7.80;67.60;;;;;;5048021;28;20454;-65
2023/04/04 08:31:17;;;;;;;12.23;3.28;;;7.60;68.50;;;;;;5048688;28;20040;-64
2023/04/04 08:33:44;;;;;;;7.85;2.28;;;7.40;68.40;;;;;;5081440;28;20075;-65
2023/04/04 08:36:10;;;;;;;9.18;2.67;;;7.50;66.80;;;;;;5064672;28;20487;-64
2023/04/04 08:38:35;;;;;;;6.45;2.40;;;7.90;68.50;;;;;;5064873;28;20040;-64
2023/04/04 08:41:01;;;;;;;7.95;2.30;;;8.40;67.80;;;;;;5064744;28;20040;-65
2023/04/04 08:43:30;;;;;;;8.98;2.70;;;8.40;65.70;;;;;;5064799;28;20051;-64
2023/04/04 08:45:56;;;;;;;7.18;2.05;;;8.80;64.30;;;;;;5066731;28;20173;-64
2023/04/04 08:48:25;;;;;;;7.82;1.83;;;9.10;60.20;;;;;;5066281;28;20119;-64
2023/04/04 08:50:56;;;;;;;6.25;2.00;;;9.00;55.70;;;;;;5047491;28;20040;-64
2023/04/04 08:53:21;;;;;;;9.07;2.17;;;8.90;54.60;;;;;;5064630;28;20136;-64
2023/04/04 08:55:48;;;;;;;7.35;1.88;;;8.60;54.70;;;;;;5064548;28;20139;-64
2023/04/04 08:58:16;;;;;;;6.57;1.80;;;8.50;53.80;;;;;;5065646;28;20110;-65
2023/04/04 09:00:41;;;;;;;7.60;2.28;;;8.50;52.70;;;;;;5084553;28;20040;-64
2023/04/04 09:03:25;;;;;;;6.72;2.65;;;8.10;54.80;;;;;;5076494;28;20039;-65
2023/04/04 09:05:55;;;;;;;7.70;1.98;;;8.10;55.70;;;;;;5050009;28;20133;-64
2023/04/04 09:08:23;;;;;;;9.50;2.50;;;7.80;57.40;;;;;;5064264;28;20044;-64
2023/04/04 09:10:50;;;;;;;8.10;2.35;;;7.60;57.70;;;;;;5047433;28;20909;-65
2023/04/04 09:13:19;;;;;;;8.52;2.78;;;8.00;59.10;;;;;;5066106;28;20044;-65
2023/04/04 09:15:48;;;;;;;7.60;2.53;;;8.30;59.70;;;;;;5084722;28;20043;-63
2023/04/04 09:18:14;;;;;;;9.63;2.63;;;8.50;59.30;;;;;;5076307;28;20523;-66
2023/04/04 09:20:41;;;;;;;7.82;2.80;;;8.40;61.00;;;;;;5071057;28;20048;-68
2023/04/04 09:23:12;;;;;;;7.72;2.50;;;8.00;62.00;;;;;;5084438;28;20043;-64
2023/04/04 09:25:49;;;;;;;10.02;2.85;;;8.10;62.00;;;;;;5084200;28;20106;-64
2023/04/04 09:28:15;;;;;;;7.93;2.22;;;8.30;59.90;;;;;;5064918;28;20040;-64
2023/04/04 09:30:43;;;;;;;8.90;2.42;;;8.50;60.20;;;;;;5047569;28;20047;-64
2023/04/04 09:33:11;;;;;;;9.63;2.90;;;8.60;61.30;;;;;;5047619;28;20048;-66
2023/04/04 09:35:40;;;;;;;7.00;3.08;;;8.30;60.10;;;;;;5047240;28;20467;-64
2023/04/04 09:38:07;;;;;;;7.63;2.42;;;8.00;60.40;;;;;;5065495;28;20483;-67
2023/04/04 09:40:36;;;;;;;10.25;3.00;;;8.00;61.30;;;;;;5064017;28;20036;-66
2023/04/04 09:43:06;;;;;;;7.30;2.53;;;7.80;60.40;;;;;;5047393;28;20048;-64
2023/04/04 09:45:37;;;;;;;6.53;2.33;;;8.10;63.20;;;;;;5064277;28;20040;-64
2023/04/04 09:48:04;;;;;;;6.45;2.50;;;8.70;65.10;;;;;;5067464;28;20465;-68
2023/04/04 09:50:32;;;;;;;9.77;2.97;;;8.90;61.30;;;;;;5046891;28;20075;-66
2023/04/04 09:52:59;;;;;;;7.43;3.00;;;8.90;59.10;;;;;;5064241;28;20045;-66
2023/04/04 09:55:33;;;;;;;8.35;2.40;;;9.20;58.10;;;;;;5063659;28;20059;-65
2023/04/04 09:58:04;;;;;;;10.45;2.55;;;10.00;58.70;;;;;;5046595;28;20036;-66
2023/04/04 10:00:37;;;;;;;11.00;2.88;;;10.20;55.40;;;;;;5047374;28;20450;-67
2023/04/04 10:03:04;;;;;;;5.95;2.17;;;10.60;53.70;;;;;;5047223;28;20043;-65
2023/04/04 10:05:31;;;;;;;7.18;2.60;;;10.30;53.40;;;;;;5065089;28;20457;-64
2023/04/04 10:07:58;;;;;;;5.95;2.35;;;10.10;55.90;;;;;;5063791;28;20509;-66
2023/04/04 10:10:27;;;;;;;7.28;2.20;;;10.00;55.60;;;;;;5046700;28;20056;-66
2023/04/04 10:12:56;;;;;;;10.57;2.75;;;9.60;54.90;;;;;;5063490;28;20121;-65
2023/04/04 10:15:23;;;;;;;8.80;2.40;;;9.70;54.50;;;;;;5063741;28;20032;-65
2023/04/04 10:17:54;;;;;;;8.18;2.72;;;9.70;54.70;;;;;;5048067;28;20105;-66
2023/04/04 10:20:21;;;;;;;9.50;2.50;;;9.90;52.70;;;;;;5068512;28;20037;-64
2023/04/04 10:22:48;;;;;;;8.52;2.65;;;10.30;55.00;;;;;;5067341;28;20041;-65
2023/04/04 10:25:14;;;;;;;7.18;2.63;;;10.40;53.40;;;;;;5067294;28;20039;-66
2023/04/04 10:27:40;;;;;;;6.85;2.42;;;10.70;52.90;;;;;;5050848;28;20387;-65
2023/04/04 10:30:06;;;;;;;7.25;2.45;;;10.50;52.80;;;;;;5051039;28;20106;-64
2023/04/04 10:32:50;;;;;;;7.53;2.63;;;10.50;53.20;;;;;;5084343;28;20027;-64
2023/04/04 10:35:18;;;;;;;8.43;2.50;;;10.70;50.00;;;;;;5067278;28;20040;-64
2023/04/04 10:37:53;;;;;;;7.25;2.45;;;10.70;51.60;;;;;;5084113;28;20067;-65
2023/04/04 10:40:22;;;;;;;8.70;2.83;;;11.20;51.40;;;;;;5067235;28;20044;-65
2023/04/04 10:42:49;;;;;;;8.82;2.67;;;11.10;50.20;;;;;;5066973;28;20048;-65
2023/04/04 10:45:16;;;;;;;8.60;2.67;;;11.00;50.50;;;;;;5067169;28;20621;-65
2023/04/04 10:47:43;;;;;;;8.32;2.50;;;10.80;50.60;;;;;;5066883;28;20033;-66
2023/04/04 10:50:11;;;;;;;9.10;2.33;;;10.40;50.70;;;;;;5050615;28;20040;-65
2023/04/04 10:52:39;;;;;;;7.80;2.60;;;9.90;50.30;;;;;;5067403;28;20501;-66
2023/04/04 10:55:08;;;;;;;7.40;2.33;;;9.60;50.90;;;;;;5066879;28;20465;-64
2023/04/04 10:57:46;;;;;;;7.75;2.70;;;9.50;51.50;;;;;;5050222;28;20119;-65
2023/04/04 11:00:18;;;;;;;10.23;2.45;;;9.60;50.60;;;;;;5066348;28;20084;-64
2023/04/04 11:02:58;;;;;;;8.55;2.55;;;10.10;51.50;;;;;;5050253;28;20052;-64
2023/04/04 11:05:25;;;;;;;8.38;2.40;;;10.50;50.40;;;;;;5066620;28;20503;-64
2023/04/04 11:08:04;;;;;;;8.07;2.65;;;10.70;51.10;;;;;;5066718;28;20044;-68
2023/04/04 11:10:31;;;;;;;8.10;2.63;;;10.90;47.70;;;;;;5066513;28;20098;-66
2023/04/04 11:13:06;;;;;;;6.65;2.40;;;10.50;51.30;;;;;;5066527;28;20079;-68
2023/04/04 11:16:03;;;;;;;7.13;2.63;;;10.20;50.40;;;;;;5050146;28;20044;-64
2023/04/04 11:18:42;;;;;;;6.50;2.38;;;10.20;49.60;;;;;;5059759;28;20052;-66
2023/04/04 11:21:17;;;;;;;7.25;2.58;;;10.30;49.70;;;;;;5074709;28;20052;-67
2023/04/04 11:23:58;;;;;;;7.38;2.47;;;10.50;49.10;;;;;;5049792;28;20131;-68
2023/04/04 11:26:27;;;;;;;9.73;2.75;;;10.70;47.90;;;;;;5049761;28;20044;-67
2023/04/04 11:28:57;;;;;;;8.75;2.45;;;11.00;49.20;;;;;;5049551;28;20041;-67
2023/04/04 11:31:28;;;;;;;6.55;2.20;;;11.50;48.00;;;;;;5065928;28;20049;-65
2023/04/04 11:34:04;;;;;;;8.75;2.40;;;12.00;47.10;;;;;;5067589;28;20411;-64
2023/04/04 11:36:40;;;;;;;8.40;2.47;;;11.80;44.80;;;;;;5067165;28;20109;-67
2023/04/04 11:39:23;;;;;;;6.85;2.80;;;11.80;47.30;;;;;;5049846;28;20051;-65
2023/04/04 11:41:57;;;;;;;6.95;2.50;;;11.50;45.50;;;;;;5065900;28;20043;-68
2023/04/04 11:44:30;;;;;;;9.35;2.83;;;11.70;46.40;;;;;;5060209;28;20134;-65
2023/04/04 11:47:08;;;;;;;8.98;2.40;;;11.30;47.50;;;;;;5086209;28;20078;-64
2023/04/04 11:49:36;;;;;;;7.50;2.60;;;11.60;47.70;;;;;;5066782;28;20330;-65
2023/04/04 11:52:11;;;;;;;7.38;2.75;;;11.90;47.20;;;;;;5084230;28;20716;-65
2023/04/04 11:54:42;;;;;;;9.55;2.45;;;11.60;46.30;;;;;;5061251;28;20044;-64
2023/04/04 11:57:13;;;;;;;6.57;2.53;;;11.60;45.90;;;;;;5067072;28;20522;-66
2023/04/04 11:59:44;;;;;;;7.30;2.42;;;11.50;45.30;;;;;;5078019;28;20064;-67
2023/04/04 12:02:12;;;;;;;8.02;2.55;;;11.50;45.90;;;;;;5087495;28;20182;-66
2023/04/04 12:04:44;;;;;;;7.10;2.25;;;11.40;45.10;;;;;;5065701;28;20044;-66
2023/04/04 12:07:14;;;;;;;7.15;2.67;;;11.40;45.30;;;;;;5065931;28;20037;-64
2023/04/04 12:09:41;;;;;;;7.00;2.45;;;11.30;45.80;;;;;;5065734;28;20111;-66
2023/04/04 12:12:11;;;;;;;8.32;3.08;;;10.80;45.50;;;;;;5048690;28;20332;-64
2023/04/04 12:14:38;;;;;;;10.70;2.40;;;11.00;47.20;;;;;;5061212;28;20105;-66
2023/04/04 12:17:05;;;;;;;8.50;2.60;;;11.30;48.20;;;;;;5086133;28;20495;-67
2023/04/04 12:19:37;;;;;;;7.35;2.75;;;10.90;45.50;;;;;;5066561;28;20515;-64
2023/04/04 12:22:03;;;;;;;8.77;2.47;;;11.40;46.20;;;;;;5082943;28;20040;-64
2023/04/04 12:24:29;;;;;;;8.38;3.35;;;11.80;46.80;;;;;;5086958;28;20333;-65
2023/04/04 12:26:57;;;;;;;7.80;2.72;;;11.80;47.30;;;;;;5085593;28;20036;-67
2023/04/04 12:29:28;;;;;;;6.20;2.78;;;10.90;45.80;;;;;;5065904;28;20045;-63
2023/04/04 12:31:56;;;;;;;7.63;3.10;;;10.70;45.30;;;;;;5066804;28;20423;-66
2023/04/04 12:34:24;;;;;;;8.88;2.78;;;10.60;46.50;;;;;;5064876;28;20040;-66
2023/04/04 12:36:57;;;;;;;8.70;2.90;;;10.20;45.60;;;;;;5064640;28;20584;-65
2023/04/04 12:39:27;;;;;;;9.73;3.08;;;10.10;45.10;;;;;;5066386;28;20133;-68
2023/04/04 12:42:02;;;;;;;13.27;3.25;;;9.90;45.50;;;;;;5047534;28;20048;-66
2023/04/04 12:44:32;;;;;;;8.38;3.17;;;9.70;45.00;;;;;;5064726;28;20040;-65
2023/04/04 12:47:00;;;;;;;8.43;3.25;;;9.90;46.40;;;;;;5066352;28;20040;-65